sensor_id;sensor_type;location;lat;lon;timestamp;temperature;humidity
7296;DHT22;40758;54.038;11.684;2022-11-15T00:02:12;6.00;99.90
7296;DHT22;40758;54.038;11.684;2022-11-15T00:04:41;6.00;99.90
7296;DHT22;40758;54.038;11.684;2022-11-15T00:07:10;6.00;99.90
7296;DHT22;40758;54.038;11.684;2022-11-15T00:10:00;6.00;99.90
7296;DHT22;40758;54.038;11.684;2022-11-15T00:12:30;6.10;99.90
7296;DHT22;40758;54.038;11.684;2022-11-15T00:15:01;6.10;99.90
7296;DHT22;40758;54.038;11.684;2022-11-15T00:17:31;6.10;99.90
7296;DHT22;40758;54.038;11.684;2022-11-15T00:20:04;6.20;99.90
7296;DHT22;40758;54.038;11.684;2022-11-15T00:22:36;6.30;99.90
7296;DHT22;40758;54.038;11.684;2022-11-15T00:25:06;6.40;99.90
7296;DHT22;40758;54.038;11.684;2022-11-15T00:27:37;6.30;99.90
7296;DHT22;40758;54.038;11.684;2022-11-15T00:30:07;6.30;99.90
7296;DHT22;40758;54.038;11.684;2022-11-15T00:32:38;6.30;99.90
7296;DHT22;40758;54.038;11.684;2022-11-15T00:35:07;6.30;99.90
7296;DHT22;40758;54.038;11.684;2022-11-15T00:37:36;6.40;99.90
7296;DHT22;40758;54.038;11.684;2022-11-15T00:40:08;6.40;99.90
7296;DHT22;40758;54.038;11.684;2022-11-15T00:42:42;6.50;99.90
7296;DHT22;40758;54.038;11.684;2022-11-15T00:45:11;6.50;99.90
7296;DHT22;40758;54.038;11.684;2022-11-15T00:47:40;6.50;99.90
7296;DHT22;40758;54.038;11.684;2022-11-15T00:50:12;6.50;99.90
7296;DHT22;40758;54.038;11.684;2022-11-15T00:52:41;6.70;99.90
7296;DHT22;40758;54.038;11.684;2022-11-15T00:55:13;6.60;99.90
7296;DHT22;40758;54.038;11.684;2022-11-15T00:57:45;6.60;99.90
7296;DHT22;40758;54.038;11.684;2022-11-15T01:00:15;6.60;99.90
7296;DHT22;40758;54.038;11.684;2022-11-15T01:02:45;6.70;99.90
7296;DHT22;40758;54.038;11.684;2022-11-15T01:05:15;6.70;99.90
7296;DHT22;40758;54.038;11.684;2022-11-15T01:07:44;6.60;99.90
7296;DHT22;40758;54.038;11.684;2022-11-15T01:10:14;6.60;99.90
7296;DHT22;40758;54.038;11.684;2022-11-15T01:12:53;6.60;99.90
7296;DHT22;40758;54.038;11.684;2022-11-15T01:15:23;6.60;99.90
7296;DHT22;40758;54.038;11.684;2022-11-15T01:17:52;6.60;99.90
7296;DHT22;40758;54.038;11.684;2022-11-15T01:20:22;6.60;99.90
7296;DHT22;40758;54.038;11.684;2022-11-15T01:22:52;6.60;99.90
7296;DHT22;40758;54.038;11.684;2022-11-15T01:25:22;6.60;99.90
7296;DHT22;40758;54.038;11.684;2022-11-15T01:27:53;6.70;99.90
7296;DHT22;40758;54.038;11.684;2022-11-15T01:30:22;6.70;99.90
7296;DHT22;40758;54.038;11.684;2022-11-15T01:32:52;6.60;99.90
7296;DHT22;40758;54.038;11.684;2022-11-15T01:35:20;6.60;99.90
7296;DHT22;40758;54.038;11.684;2022-11-15T01:37:50;6.60;99.90
7296;DHT22;40758;54.038;11.684;2022-11-15T01:40:23;6.60;99.90
7296;DHT22;40758;54.038;11.684;2022-11-15T01:42:54;6.50;99.90
7296;DHT22;40758;54.038;11.684;2022-11-15T01:45:23;6.60;99.90
7296;DHT22;40758;54.038;11.684;2022-11-15T01:47:53;6.50;99.90
7296;DHT22;40758;54.038;11.684;2022-11-15T01:50:27;6.50;99.90
7296;DHT22;40758;54.038;11.684;2022-11-15T01:53:00;6.50;99.90
7296;DHT22;40758;54.038;11.684;2022-11-15T01:55:30;6.50;99.90
7296;DHT22;40758;54.038;11.684;2022-11-15T01:58:03;6.50;99.90
7296;DHT22;40758;54.038;11.684;2022-11-15T02:00:35;6.40;99.90
7296;DHT22;40758;54.038;11.684;2022-11-15T02:03:08;6.40;99.90
7296;DHT22;40758;54.038;11.684;2022-11-15T02:05:37;6.30;99.90
7296;DHT22;40758;54.038;11.684;2022-11-15T02:08:08;6.30;99.90
7296;DHT22;40758;54.038;11.684;2022-11-15T02:10:47;6.30;99.90
7296;DHT22;40758;54.038;11.684;2022-11-15T02:13:18;6.30;99.90
7296;DHT22;40758;54.038;11.684;2022-11-15T02:15:58;6.30;99.90
7296;DHT22;40758;54.038;11.684;2022-11-15T02:18:35;6.30;99.90
7296;DHT22;40758;54.038;11.684;2022-11-15T02:21:19;6.20;99.90
7296;DHT22;40758;54.038;11.684;2022-11-15T02:24:09;6.10;99.90
7296;DHT22;40758;54.038;11.684;2022-11-15T02:30:25;6.00;99.90
7296;DHT22;40758;54.038;11.684;2022-11-15T02:33:07;5.80;99.90
7296;DHT22;40758;54.038;11.684;2022-11-15T02:35:52;5.70;99.90
7296;DHT22;40758;54.038;11.684;2022-11-15T02:38:32;5.60;99.90
7296;DHT22;40758;54.038;11.684;2022-11-15T02:41:13;5.60;99.90
7296;DHT22;40758;54.038;11.684;2022-11-15T02:43:47;5.50;99.90
7296;DHT22;40758;54.038;11.684;2022-11-15T02:46:31;5.50;99.90
7296;DHT22;40758;54.038;11.684;2022-11-15T02:49:23;5.50;99.90
7296;DHT22;40758;54.038;11.684;2022-11-15T02:51:55;5.50;99.90
7296;DHT22;40758;54.038;11.684;2022-11-15T02:54:30;5.40;99.90
7296;DHT22;40758;54.038;11.684;2022-11-15T02:57:03;5.40;99.90
7296;DHT22;40758;54.038;11.684;2022-11-15T02:59:50;5.30;99.90
7296;DHT22;40758;54.038;11.684;2022-11-15T03:02:42;5.30;99.90
7296;DHT22;40758;54.038;11.684;2022-11-15T03:05:25;5.10;99.90
7296;DHT22;40758;54.038;11.684;2022-11-15T03:08:08;5.10;99.90
7296;DHT22;40758;54.038;11.684;2022-11-15T03:10:49;5.10;99.90
7296;DHT22;40758;54.038;11.684;2022-11-15T03:13:39;5.20;99.90
7296;DHT22;40758;54.038;11.684;2022-11-15T03:16:29;5.20;99.90
7296;DHT22;40758;54.038;11.684;2022-11-15T03:19:09;5.20;99.90
7296;DHT22;40758;54.038;11.684;2022-11-15T03:21:43;5.10;99.90
7296;DHT22;40758;54.038;11.684;2022-11-15T03:24:14;5.10;99.90
7296;DHT22;40758;54.038;11.684;2022-11-15T03:26:53;5.00;99.90
7296;DHT22;40758;54.038;11.684;2022-11-15T03:29:28;5.00;99.90
7296;DHT22;40758;54.038;11.684;2022-11-15T03:32:07;5.00;99.90
7296;DHT22;40758;54.038;11.684;2022-11-15T03:34:45;4.90;99.90
7296;DHT22;40758;54.038;11.684;2022-11-15T03:37:22;5.00;99.90
7296;DHT22;40758;54.038;11.684;2022-11-15T03:39:59;5.00;99.90
7296;DHT22;40758;54.038;11.684;2022-11-15T03:42:34;5.10;99.90
7296;DHT22;40758;54.038;11.684;2022-11-15T03:45:14;5.10;99.90
7296;DHT22;40758;54.038;11.684;2022-11-15T03:47:53;5.00;99.90
7296;DHT22;40758;54.038;11.684;2022-11-15T03:50:29;5.10;99.90
7296;DHT22;40758;54.038;11.684;2022-11-15T03:52:59;5.10;99.90
7296;DHT22;40758;54.038;11.684;2022-11-15T03:55:32;5.10;99.90
7296;DHT22;40758;54.038;11.684;2022-11-15T03:58:02;5.20;99.90
7296;DHT22;40758;54.038;11.684;2022-11-15T04:00:33;5.20;99.90
7296;DHT22;40758;54.038;11.684;2022-11-15T04:03:01;5.20;99.90
7296;DHT22;40758;54.038;11.684;2022-11-15T04:05:32;5.20;99.90
7296;DHT22;40758;54.038;11.684;2022-11-15T04:08:03;5.20;99.90
7296;DHT22;40758;54.038;11.684;2022-11-15T04:10:33;5.10;99.90
7296;DHT22;40758;54.038;11.684;2022-11-15T04:13:02;5.10;99.90
7296;DHT22;40758;54.038;11.684;2022-11-15T04:15:32;5.00;99.90
7296;DHT22;40758;54.038;11.684;2022-11-15T04:18:02;4.90;99.90
7296;DHT22;40758;54.038;11.684;2022-11-15T04:20:36;4.90;99.90
7296;DHT22;40758;54.038;11.684;2022-11-15T04:23:23;4.80;99.90
7296;DHT22;40758;54.038;11.684;2022-11-15T04:26:14;4.70;99.90
7296;DHT22;40758;54.038;11.684;2022-11-15T04:28:45;4.60;99.90
7296;DHT22;40758;54.038;11.684;2022-11-15T04:31:28;4.50;99.90
7296;DHT22;40758;54.038;11.684;2022-11-15T04:33:58;4.40;99.90
7296;DHT22;40758;54.038;11.684;2022-11-15T04:36:29;4.30;99.90
7296;DHT22;40758;54.038;11.684;2022-11-15T04:39:16;4.30;99.90
7296;DHT22;40758;54.038;11.684;2022-11-15T04:41:47;4.50;99.90
7296;DHT22;40758;54.038;11.684;2022-11-15T04:44:16;4.50;99.90
7296;DHT22;40758;54.038;11.684;2022-11-15T04:46:48;4.50;99.90
7296;DHT22;40758;54.038;11.684;2022-11-15T04:49:17;4.60;99.90
7296;DHT22;40758;54.038;11.684;2022-11-15T04:51:49;4.70;99.90
7296;DHT22;40758;54.038;11.684;2022-11-15T04:54:18;4.70;99.90
7296;DHT22;40758;54.038;11.684;2022-11-15T04:56:47;4.70;99.90
7296;DHT22;40758;54.038;11.684;2022-11-15T04:59:16;4.70;99.90
7296;DHT22;40758;54.038;11.684;2022-11-15T05:01:46;4.70;99.90
7296;DHT22;40758;54.038;11.684;2022-11-15T05:04:15;4.60;99.90
7296;DHT22;40758;54.038;11.684;2022-11-15T05:06:51;4.60;99.90
7296;DHT22;40758;54.038;11.684;2022-11-15T05:09:21;4.50;99.90
7296;DHT22;40758;54.038;11.684;2022-11-15T05:11:50;4.50;99.90
7296;DHT22;40758;54.038;11.684;2022-11-15T05:14:23;4.50;99.90
7296;DHT22;40758;54.038;11.684;2022-11-15T05:16:54;4.40;99.90
7296;DHT22;40758;54.038;11.684;2022-11-15T05:19:26;4.40;99.90
7296;DHT22;40758;54.038;11.684;2022-11-15T05:21:56;4.40;99.90
7296;DHT22;40758;54.038;11.684;2022-11-15T05:24:26;4.40;99.90
7296;DHT22;40758;54.038;11.684;2022-11-15T05:26:55;4.40;99.90
7296;DHT22;40758;54.038;11.684;2022-11-15T05:29:25;4.40;99.90
7296;DHT22;40758;54.038;11.684;2022-11-15T05:31:54;4.40;99.90
7296;DHT22;40758;54.038;11.684;2022-11-15T05:34:24;4.40;99.90
7296;DHT22;40758;54.038;11.684;2022-11-15T05:36:56;4.40;99.90
7296;DHT22;40758;54.038;11.684;2022-11-15T05:39:26;4.30;99.90
7296;DHT22;40758;54.038;11.684;2022-11-15T05:42:00;4.30;99.90
7296;DHT22;40758;54.038;11.684;2022-11-15T05:44:36;4.30;99.90
7296;DHT22;40758;54.038;11.684;2022-11-15T05:47:14;4.20;99.90
7296;DHT22;40758;54.038;11.684;2022-11-15T05:49:46;4.00;99.90
7296;DHT22;40758;54.038;11.684;2022-11-15T05:52:24;4.00;99.90
7296;DHT22;40758;54.038;11.684;2022-11-15T05:54:59;3.90;99.90
7296;DHT22;40758;54.038;11.684;2022-11-15T05:57:30;3.90;99.90
7296;DHT22;40758;54.038;11.684;2022-11-15T05:59:59;4.00;99.90
7296;DHT22;40758;54.038;11.684;2022-11-15T06:02:30;4.10;99.90
7296;DHT22;40758;54.038;11.684;2022-11-15T06:04:59;4.20;99.90
7296;DHT22;40758;54.038;11.684;2022-11-15T06:07:30;4.20;99.90
7296;DHT22;40758;54.038;11.684;2022-11-15T06:10:01;4.20;99.90
7296;DHT22;40758;54.038;11.684;2022-11-15T06:12:30;4.20;99.90
7296;DHT22;40758;54.038;11.684;2022-11-15T06:15:00;4.20;99.90
7296;DHT22;40758;54.038;11.684;2022-11-15T06:17:31;4.10;99.90
7296;DHT22;40758;54.038;11.684;2022-11-15T06:20:00;4.30;99.90
7296;DHT22;40758;54.038;11.684;2022-11-15T06:22:32;4.20;99.90
7296;DHT22;40758;54.038;11.684;2022-11-15T06:25:02;4.20;99.90
7296;DHT22;40758;54.038;11.684;2022-11-15T06:27:32;4.30;99.90
7296;DHT22;40758;54.038;11.684;2022-11-15T06:30:02;4.40;99.90
7296;DHT22;40758;54.038;11.684;2022-11-15T06:32:31;4.60;99.90
7296;DHT22;40758;54.038;11.684;2022-11-15T06:35:01;4.80;99.90
7296;DHT22;40758;54.038;11.684;2022-11-15T06:37:33;4.90;99.90
7296;DHT22;40758;54.038;11.684;2022-11-15T06:40:03;5.10;99.90
7296;DHT22;40758;54.038;11.684;2022-11-15T06:42:33;5.20;99.90
7296;DHT22;40758;54.038;11.684;2022-11-15T06:45:03;5.40;99.90
7296;DHT22;40758;54.038;11.684;2022-11-15T06:47:36;5.50;99.90
7296;DHT22;40758;54.038;11.684;2022-11-15T06:50:16;5.60;99.90
7296;DHT22;40758;54.038;11.684;2022-11-15T06:52:47;5.70;99.90
7296;DHT22;40758;54.038;11.684;2022-11-15T06:55:21;5.80;99.90
7296;DHT22;40758;54.038;11.684;2022-11-15T06:57:51;5.90;99.90
7296;DHT22;40758;54.038;11.684;2022-11-15T07:00:22;6.00;99.90
7296;DHT22;40758;54.038;11.684;2022-11-15T07:02:51;6.10;99.90
7296;DHT22;40758;54.038;11.684;2022-11-15T07:05:19;6.20;99.90
7296;DHT22;40758;54.038;11.684;2022-11-15T07:07:54;6.30;99.90
7296;DHT22;40758;54.038;11.684;2022-11-15T07:10:24;6.30;99.90
7296;DHT22;40758;54.038;11.684;2022-11-15T07:12:55;6.40;99.90
7296;DHT22;40758;54.038;11.684;2022-11-15T07:15:27;6.50;99.90
7296;DHT22;40758;54.038;11.684;2022-11-15T07:18:00;6.60;99.90
7296;DHT22;40758;54.038;11.684;2022-11-15T07:20:31;6.60;99.90
7296;DHT22;40758;54.038;11.684;2022-11-15T07:23:02;6.70;99.90
7296;DHT22;40758;54.038;11.684;2022-11-15T07:25:32;6.80;99.90
7296;DHT22;40758;54.038;11.684;2022-11-15T07:28:05;6.90;99.90
7296;DHT22;40758;54.038;11.684;2022-11-15T07:30:34;6.90;99.90
7296;DHT22;40758;54.038;11.684;2022-11-15T07:33:11;7.10;99.90
7296;DHT22;40758;54.038;11.684;2022-11-15T07:35:44;7.20;99.90
7296;DHT22;40758;54.038;11.684;2022-11-15T07:38:17;7.20;99.90
7296;DHT22;40758;54.038;11.684;2022-11-15T07:40:56;7.30;99.90
7296;DHT22;40758;54.038;11.684;2022-11-15T07:43:27;7.30;99.90
7296;DHT22;40758;54.038;11.684;2022-11-15T07:45:58;7.40;99.90
7296;DHT22;40758;54.038;11.684;2022-11-15T07:48:30;7.30;99.90
7296;DHT22;40758;54.038;11.684;2022-11-15T07:51:11;7.40;99.90
7296;DHT22;40758;54.038;11.684;2022-11-15T07:53:43;7.50;99.90
7296;DHT22;40758;54.038;11.684;2022-11-15T07:56:12;7.60;99.90
7296;DHT22;40758;54.038;11.684;2022-11-15T07:58:41;7.50;99.90
7296;DHT22;40758;54.038;11.684;2022-11-15T08:01:11;7.50;99.90
7296;DHT22;40758;54.038;11.684;2022-11-15T08:03:40;7.60;99.90
7296;DHT22;40758;54.038;11.684;2022-11-15T08:06:09;7.70;99.90
7296;DHT22;40758;54.038;11.684;2022-11-15T08:08:38;7.70;99.90
7296;DHT22;40758;54.038;11.684;2022-11-15T08:11:08;7.80;99.90
7296;DHT22;40758;54.038;11.684;2022-11-15T08:13:40;7.90;99.90
7296;DHT22;40758;54.038;11.684;2022-11-15T08:16:09;8.00;99.90
7296;DHT22;40758;54.038;11.684;2022-11-15T08:18:39;8.00;99.90
7296;DHT22;40758;54.038;11.684;2022-11-15T08:21:09;8.10;99.90
7296;DHT22;40758;54.038;11.684;2022-11-15T08:23:44;8.20;99.90
7296;DHT22;40758;54.038;11.684;2022-11-15T08:26:15;8.20;99.90
7296;DHT22;40758;54.038;11.684;2022-11-15T08:28:45;8.20;99.90
7296;DHT22;40758;54.038;11.684;2022-11-15T08:31:15;8.20;99.90
7296;DHT22;40758;54.038;11.684;2022-11-15T08:33:45;8.20;99.90
7296;DHT22;40758;54.038;11.684;2022-11-15T08:36:16;8.20;99.90
7296;DHT22;40758;54.038;11.684;2022-11-15T08:38:46;8.30;99.90
7296;DHT22;40758;54.038;11.684;2022-11-15T08:41:23;8.30;99.90
7296;DHT22;40758;54.038;11.684;2022-11-15T08:43:55;8.30;99.90
7296;DHT22;40758;54.038;11.684;2022-11-15T08:46:25;8.20;99.90
7296;DHT22;40758;54.038;11.684;2022-11-15T08:48:56;8.30;99.90
7296;DHT22;40758;54.038;11.684;2022-11-15T08:51:24;8.20;99.90
7296;DHT22;40758;54.038;11.684;2022-11-15T08:53:54;8.30;99.90
7296;DHT22;40758;54.038;11.684;2022-11-15T08:56:27;8.40;99.90
7296;DHT22;40758;54.038;11.684;2022-11-15T08:58:56;8.40;99.90
7296;DHT22;40758;54.038;11.684;2022-11-15T09:01:25;8.30;99.90
7296;DHT22;40758;54.038;11.684;2022-11-15T09:03:57;8.40;99.90
7296;DHT22;40758;54.038;11.684;2022-11-15T09:06:26;8.40;99.90
7296;DHT22;40758;54.038;11.684;2022-11-15T09:08:58;8.50;99.90
7296;DHT22;40758;54.038;11.684;2022-11-15T09:11:31;8.50;99.90
7296;DHT22;40758;54.038;11.684;2022-11-15T09:14:00;8.50;99.90
7296;DHT22;40758;54.038;11.684;2022-11-15T09:16:32;8.50;99.90
7296;DHT22;40758;54.038;11.684;2022-11-15T09:19:01;8.60;99.90
7296;DHT22;40758;54.038;11.684;2022-11-15T09:21:37;8.70;99.90
7296;DHT22;40758;54.038;11.684;2022-11-15T09:24:06;8.70;99.90
7296;DHT22;40758;54.038;11.684;2022-11-15T09:26:37;8.80;99.90
7296;DHT22;40758;54.038;11.684;2022-11-15T09:29:06;8.80;99.90
7296;DHT22;40758;54.038;11.684;2022-11-15T09:31:35;8.80;99.90
7296;DHT22;40758;54.038;11.684;2022-11-15T09:34:05;8.90;99.90
7296;DHT22;40758;54.038;11.684;2022-11-15T09:36:34;8.90;99.90
7296;DHT22;40758;54.038;11.684;2022-11-15T09:39:03;9.00;99.90
7296;DHT22;40758;54.038;11.684;2022-11-15T09:45:00;9.10;99.90
7296;DHT22;40758;54.038;11.684;2022-11-15T09:48:00;9.10;99.90
7296;DHT22;40758;54.038;11.684;2022-11-15T09:50:43;9.10;99.90
7296;DHT22;40758;54.038;11.684;2022-11-15T09:53:26;9.20;99.90
7296;DHT22;40758;54.038;11.684;2022-11-15T09:56:24;9.20;99.90
7296;DHT22;40758;54.038;11.684;2022-11-15T09:59:07;9.30;99.90
7296;DHT22;40758;54.038;11.684;2022-11-15T10:04:52;9.60;99.90
7296;DHT22;40758;54.038;11.684;2022-11-15T10:07:25;9.60;99.90
7296;DHT22;40758;54.038;11.684;2022-11-15T10:10:04;9.70;99.90
7296;DHT22;40758;54.038;11.684;2022-11-15T10:12:48;9.70;99.90
7296;DHT22;40758;54.038;11.684;2022-11-15T10:15:21;9.80;99.90
7296;DHT22;40758;54.038;11.684;2022-11-15T10:18:15;9.90;99.90
7296;DHT22;40758;54.038;11.684;2022-11-15T10:20:49;10.00;99.90
7296;DHT22;40758;54.038;11.684;2022-11-15T10:23:23;10.10;99.90
7296;DHT22;40758;54.038;11.684;2022-11-15T10:25:54;10.30;99.90
7296;DHT22;40758;54.038;11.684;2022-11-15T10:28:32;10.30;99.90
7296;DHT22;40758;54.038;11.684;2022-11-15T10:31:21;10.40;99.90
7296;DHT22;40758;54.038;11.684;2022-11-15T10:33:59;10.40;99.90
7296;DHT22;40758;54.038;11.684;2022-11-15T10:36:44;10.40;99.90
7296;DHT22;40758;54.038;11.684;2022-11-15T10:39:16;10.50;99.90
7296;DHT22;40758;54.038;11.684;2022-11-15T10:41:45;10.40;99.90
7296;DHT22;40758;54.038;11.684;2022-11-15T10:44:23;10.50;99.90
7296;DHT22;40758;54.038;11.684;2022-11-15T10:47:23;10.60;99.90
7296;DHT22;40758;54.038;11.684;2022-11-15T10:49:59;10.60;99.90
7296;DHT22;40758;54.038;11.684;2022-11-15T10:52:34;10.80;99.90
7296;DHT22;40758;54.038;11.684;2022-11-15T10:55:23;11.00;99.90
7296;DHT22;40758;54.038;11.684;2022-11-15T10:57:58;11.10;99.90
7296;DHT22;40758;54.038;11.684;2022-11-15T11:00:35;11.40;99.90
7296;DHT22;40758;54.038;11.684;2022-11-15T11:03:27;11.70;99.90
7296;DHT22;40758;54.038;11.684;2022-11-15T11:06:08;11.80;99.90
7296;DHT22;40758;54.038;11.684;2022-11-15T11:08:40;11.80;99.90
7296;DHT22;40758;54.038;11.684;2022-11-15T11:11:21;11.60;99.90
7296;DHT22;40758;54.038;11.684;2022-11-15T11:13:50;11.60;99.90
7296;DHT22;40758;54.038;11.684;2022-11-15T11:16:44;11.50;99.90
7296;DHT22;40758;54.038;11.684;2022-11-15T11:19:46;11.40;99.90
7296;DHT22;40758;54.038;11.684;2022-11-15T11:22:30;11.40;99.90
7296;DHT22;40758;54.038;11.684;2022-11-15T11:25:21;11.30;99.90
7296;DHT22;40758;54.038;11.684;2022-11-15T11:28:15;11.50;99.90
7296;DHT22;40758;54.038;11.684;2022-11-15T11:31:07;11.60;99.90
7296;DHT22;40758;54.038;11.684;2022-11-15T11:33:54;11.50;99.90
7296;DHT22;40758;54.038;11.684;2022-11-15T11:36:39;11.50;99.90
7296;DHT22;40758;54.038;11.684;2022-11-15T11:39:21;11.50;99.90
7296;DHT22;40758;54.038;11.684;2022-11-15T11:42:07;11.50;99.90
7296;DHT22;40758;54.038;11.684;2022-11-15T11:44:50;11.70;99.90
7296;DHT22;40758;54.038;11.684;2022-11-15T11:47:31;11.80;99.90
7296;DHT22;40758;54.038;11.684;2022-11-15T11:50:13;11.90;99.90
7296;DHT22;40758;54.038;11.684;2022-11-15T11:52:56;11.90;99.90
7296;DHT22;40758;54.038;11.684;2022-11-15T11:55:33;11.80;99.90
7296;DHT22;40758;54.038;11.684;2022-11-15T11:58:14;11.90;99.90
7296;DHT22;40758;54.038;11.684;2022-11-15T12:00:51;11.90;99.90
7296;DHT22;40758;54.038;11.684;2022-11-15T12:03:28;12.00;99.90
7296;DHT22;40758;54.038;11.684;2022-11-15T12:06:09;12.00;99.90
7296;DHT22;40758;54.038;11.684;2022-11-15T12:08:50;12.00;99.90
7296;DHT22;40758;54.038;11.684;2022-11-15T12:11:29;11.80;99.90
7296;DHT22;40758;54.038;11.684;2022-11-15T12:14:05;11.80;99.90
7296;DHT22;40758;54.038;11.684;2022-11-15T12:16:42;12.20;99.90
7296;DHT22;40758;54.038;11.684;2022-11-15T12:19:15;12.60;99.90
7296;DHT22;40758;54.038;11.684;2022-11-15T12:21:47;12.90;99.90
7296;DHT22;40758;54.038;11.684;2022-11-15T12:24:26;12.90;99.90
7296;DHT22;40758;54.038;11.684;2022-11-15T12:27:02;12.80;99.90
7296;DHT22;40758;54.038;11.684;2022-11-15T12:29:41;12.80;99.90
7296;DHT22;40758;54.038;11.684;2022-11-15T12:32:24;12.70;99.90
7296;DHT22;40758;54.038;11.684;2022-11-15T12:34:59;12.50;99.90
7296;DHT22;40758;54.038;11.684;2022-11-15T12:40:29;12.90;99.90
7296;DHT22;40758;54.038;11.684;2022-11-15T12:43:36;13.00;99.90
7296;DHT22;40758;54.038;11.684;2022-11-15T12:46:13;12.80;99.90
7296;DHT22;40758;54.038;11.684;2022-11-15T12:49:44;12.60;99.90
7296;DHT22;40758;54.038;11.684;2022-11-15T12:52:15;12.50;99.90
7296;DHT22;40758;54.038;11.684;2022-11-15T12:55:01;12.40;99.90
7296;DHT22;40758;54.038;11.684;2022-11-15T12:57:54;12.40;99.90
7296;DHT22;40758;54.038;11.684;2022-11-15T13:00:44;12.50;99.90
7296;DHT22;40758;54.038;11.684;2022-11-15T13:03:32;12.60;99.90
7296;DHT22;40758;54.038;11.684;2022-11-15T13:06:07;12.80;99.90
7296;DHT22;40758;54.038;11.684;2022-11-15T13:08:46;12.80;99.90
7296;DHT22;40758;54.038;11.684;2022-11-15T13:11:46;12.80;99.90
7296;DHT22;40758;54.038;11.684;2022-11-15T13:14:47;12.80;99.90
7296;DHT22;40758;54.038;11.684;2022-11-15T13:17:30;12.70;99.90
7296;DHT22;40758;54.038;11.684;2022-11-15T13:20:22;12.60;99.90
7296;DHT22;40758;54.038;11.684;2022-11-15T13:23:01;12.60;99.90
7296;DHT22;40758;54.038;11.684;2022-11-15T13:26:12;12.50;99.90
7296;DHT22;40758;54.038;11.684;2022-11-15T13:28:45;12.50;99.90
7296;DHT22;40758;54.038;11.684;2022-11-15T13:31:30;12.30;99.90
7296;DHT22;40758;54.038;11.684;2022-11-15T13:34:18;12.20;99.90
7296;DHT22;40758;54.038;11.684;2022-11-15T13:37:26;12.10;99.90
7296;DHT22;40758;54.038;11.684;2022-11-15T13:40:17;11.90;99.90
7296;DHT22;40758;54.038;11.684;2022-11-15T13:42:50;11.70;99.90
7296;DHT22;40758;54.038;11.684;2022-11-15T13:45:19;11.80;99.90
7296;DHT22;40758;54.038;11.684;2022-11-15T13:47:54;11.80;99.90
7296;DHT22;40758;54.038;11.684;2022-11-15T13:50:27;11.70;99.90
7296;DHT22;40758;54.038;11.684;2022-11-15T13:53:02;11.60;99.90
7296;DHT22;40758;54.038;11.684;2022-11-15T13:55:33;11.50;99.90
7296;DHT22;40758;54.038;11.684;2022-11-15T13:58:03;11.50;99.90
7296;DHT22;40758;54.038;11.684;2022-11-15T14:00:37;11.50;99.90
7296;DHT22;40758;54.038;11.684;2022-11-15T14:03:18;11.30;99.90
7296;DHT22;40758;54.038;11.684;2022-11-15T14:06:03;11.30;99.90
7296;DHT22;40758;54.038;11.684;2022-11-15T14:08:35;11.20;99.90
7296;DHT22;40758;54.038;11.684;2022-11-15T14:11:09;11.00;99.90
7296;DHT22;40758;54.038;11.684;2022-11-15T14:14:02;11.10;99.90
7296;DHT22;40758;54.038;11.684;2022-11-15T14:16:41;11.00;99.90
7296;DHT22;40758;54.038;11.684;2022-11-15T14:19:32;11.00;99.90
7296;DHT22;40758;54.038;11.684;2022-11-15T14:22:15;10.90;99.90
7296;DHT22;40758;54.038;11.684;2022-11-15T14:25:05;10.80;99.90
7296;DHT22;40758;54.038;11.684;2022-11-15T14:27:43;10.80;99.90
7296;DHT22;40758;54.038;11.684;2022-11-15T14:30:22;10.70;99.90
7296;DHT22;40758;54.038;11.684;2022-11-15T14:32:51;10.70;99.90
7296;DHT22;40758;54.038;11.684;2022-11-15T14:35:23;10.70;99.90
7296;DHT22;40758;54.038;11.684;2022-11-15T14:37:54;10.60;99.90
7296;DHT22;40758;54.038;11.684;2022-11-15T14:40:22;10.50;99.90
7296;DHT22;40758;54.038;11.684;2022-11-15T14:42:51;10.40;99.90
7296;DHT22;40758;54.038;11.684;2022-11-15T14:45:21;10.40;99.90
7296;DHT22;40758;54.038;11.684;2022-11-15T14:47:51;10.30;99.90
7296;DHT22;40758;54.038;11.684;2022-11-15T14:50:22;10.20;99.90
7296;DHT22;40758;54.038;11.684;2022-11-15T14:52:51;10.20;99.90
7296;DHT22;40758;54.038;11.684;2022-11-15T14:55:22;10.20;99.90
7296;DHT22;40758;54.038;11.684;2022-11-15T14:57:54;10.20;99.90
7296;DHT22;40758;54.038;11.684;2022-11-15T15:00:23;10.20;99.90
7296;DHT22;40758;54.038;11.684;2022-11-15T15:03:00;10.20;99.90
7296;DHT22;40758;54.038;11.684;2022-11-15T15:05:33;10.10;99.90
7296;DHT22;40758;54.038;11.684;2022-11-15T15:08:06;10.10;99.90
7296;DHT22;40758;54.038;11.684;2022-11-15T15:10:36;10.00;99.90
7296;DHT22;40758;54.038;11.684;2022-11-15T15:13:16;9.90;99.90
7296;DHT22;40758;54.038;11.684;2022-11-15T15:15:46;9.80;99.90
7296;DHT22;40758;54.038;11.684;2022-11-15T15:18:17;9.80;99.90
7296;DHT22;40758;54.038;11.684;2022-11-15T15:20:54;9.70;99.90
7296;DHT22;40758;54.038;11.684;2022-11-15T15:23:29;9.60;99.90
7296;DHT22;40758;54.038;11.684;2022-11-15T15:25:59;9.50;99.90
7296;DHT22;40758;54.038;11.684;2022-11-15T15:28:27;9.60;99.90
7296;DHT22;40758;54.038;11.684;2022-11-15T15:31:01;9.60;99.90
7296;DHT22;40758;54.038;11.684;2022-11-15T15:33:30;9.50;99.90
7296;DHT22;40758;54.038;11.684;2022-11-15T15:36:01;9.50;99.90
7296;DHT22;40758;54.038;11.684;2022-11-15T15:38:31;9.50;99.90
7296;DHT22;40758;54.038;11.684;2022-11-15T15:41:00;9.60;99.90
7296;DHT22;40758;54.038;11.684;2022-11-15T15:43:29;9.60;99.90
7296;DHT22;40758;54.038;11.684;2022-11-15T15:46:02;9.70;99.90
7296;DHT22;40758;54.038;11.684;2022-11-15T15:48:31;9.70;99.90
7296;DHT22;40758;54.038;11.684;2022-11-15T15:51:05;9.70;99.90
7296;DHT22;40758;54.038;11.684;2022-11-15T15:53:45;9.70;99.90
7296;DHT22;40758;54.038;11.684;2022-11-15T15:56:14;9.70;99.90
7296;DHT22;40758;54.038;11.684;2022-11-15T15:58:43;9.70;99.90
7296;DHT22;40758;54.038;11.684;2022-11-15T16:01:11;9.70;99.90
7296;DHT22;40758;54.038;11.684;2022-11-15T16:03:41;9.70;99.90
7296;DHT22;40758;54.038;11.684;2022-11-15T16:06:37;9.70;99.90
7296;DHT22;40758;54.038;11.684;2022-11-15T16:09:13;9.70;99.90
7296;DHT22;40758;54.038;11.684;2022-11-15T16:11:46;9.60;99.90
7296;DHT22;40758;54.038;11.684;2022-11-15T16:14:15;9.60;99.90
7296;DHT22;40758;54.038;11.684;2022-11-15T16:16:45;9.70;99.90
7296;DHT22;40758;54.038;11.684;2022-11-15T16:19:14;9.60;99.90
7296;DHT22;40758;54.038;11.684;2022-11-15T16:21:44;9.60;99.90
7296;DHT22;40758;54.038;11.684;2022-11-15T16:24:13;9.60;99.90
7296;DHT22;40758;54.038;11.684;2022-11-15T16:26:43;9.50;99.90
7296;DHT22;40758;54.038;11.684;2022-11-15T16:29:13;9.50;99.90
7296;DHT22;40758;54.038;11.684;2022-11-15T16:31:42;9.40;99.90
7296;DHT22;40758;54.038;11.684;2022-11-15T16:34:12;9.40;99.90
7296;DHT22;40758;54.038;11.684;2022-11-15T16:36:41;9.30;99.90
7296;DHT22;40758;54.038;11.684;2022-11-15T16:39:12;9.20;99.90
7296;DHT22;40758;54.038;11.684;2022-11-15T16:41:44;9.20;99.90
7296;DHT22;40758;54.038;11.684;2022-11-15T16:44:14;9.20;99.90
7296;DHT22;40758;54.038;11.684;2022-11-15T16:46:43;9.20;99.90